Parçalı ve yüksek bulutlu
Parçalı ve yüksek bulutlu
Parçalı ve yüksek bulutlu
Parçalı ve yüksek bulutlu
Açık, az alçak ve yüksek bulutlu
Açık, az alçak ve yüksek bulutlu
Açık, az alçak ve yüksek bulutlu
(°C)
14°
14°
16°
16°
18°
18°
19°
19°
20°
20°
21°
21°
21°
21°
(°C)
12°
14°
15°
17°
18°
19°
19°
KKB
KKD
D
D
DGD
DGD
DGD
(km/h)
8-17
10-21
12-19
13-20
13-22
14-24
15-26
(mm)
0
0
0
0
0
0
0
(%)
0
0
0
0
0
0
0

Güneşin açısı

/ 31.2°
sun-icon
UV 7
07:19
20:47
Şişkin ay evresi (153°)
18:36
06:12

Alcantarilla (LERI) için METAR

Zaman Koşullar Sıcaklık/
Çiy noktası
Rüzgar Görünürlük Hava Bulutlar Basınç Değiştir Ham
VFR 13°C / 5°C 1kt 9700m - Few Clouds 2400ft
Broken Clouds 3200ft
1018 No Significant change LERI 210730Z VRB01KT 9999 FEW024 BKN032 13/05 Q1018 NOSIG
VFR 13°C / 6°C 2kt 9700m - Few Clouds 2400ft
Broken Clouds 3200ft
1018 No Significant change LERI 210700Z VRB02KT 9999 FEW024 BKN032 13/06 Q1018 NOSIG
VFR 11°C / 6°C 1kt 9700m - Scattered Clouds 2400ft 1017 No Significant change LERI 210630Z VRB01KT 9999 SCT024 11/06 Q1017 NOSIG
VFR 10°C / 5°C variable 0kt 9700m - Clouds and Visibility OK 1017 No Significant change LERI 210600Z 00000KT CAVOK 10/05 Q1017 NOSIG
VFR 17°C / 4°C 60º 9kt 9700m - Clouds and Visibility OK 1014 No Significant change LERI 201800Z 06009KT CAVOK 17/04 Q1014 NOSIG
VFR 18°C / 2°C 60º 10kt 9700m - Clouds and Visibility OK 1014 No Significant change LERI 201730Z 06010KT CAVOK 18/02 Q1014 NOSIG
VFR 19°C / 4°C 60º variable 030º to 090º 10kt 9700m - Clouds and Visibility OK 1014 No Significant change LERI 201700Z 06010KT 030V090 CAVOK 19/04 Q1014 NOSIG
VFR 20°C / 5°C 50º variable 020º to 090º 11kt 9700m - Clouds and Visibility OK 1014 No Significant change LERI 201630Z 05011KT 020V090 CAVOK 20/05 Q1014 NOSIG
VFR 20°C / 6°C 60º variable 030º to 100º 11kt 9700m - Clouds and Visibility OK 1014 No Significant change LERI 201600Z 06011KT 030V100 CAVOK 20/06 Q1014 NOSIG
VFR 21°C / 6°C 60º variable 030º to 150º 12kt Gust 23kt 9700m - Clouds and Visibility OK 1014 No Significant change LERI 201530Z 06012G23KT 030V150 CAVOK 21/06 Q1014 NOSIG
VFR 21°C / 6°C 70º variable 030º to 110º 10kt 9700m - Clouds and Visibility OK 1014 No Significant change LERI 201500Z 07010KT 030V110 CAVOK 21/06 Q1014 NOSIG
VFR 22°C / 6°C 130º variable 100º to 170º 10kt 9700m - Clouds and Visibility OK 1014 No Significant change LERI 201430Z 13010KT 100V170 CAVOK 22/06 Q1014 NOSIG
VFR 22°C / 7°C 100º variable 060º to 140º 11kt 9700m - Clouds and Visibility OK 1014 No Significant change LERI 201400Z 10011KT 060V140 CAVOK 22/07 Q1014 NOSIG
VFR 22°C / 5°C 80º variable 050º to 110º 10kt 9700m - Clouds and Visibility OK 1014 No Significant change LERI 201330Z 08010KT 050V110 CAVOK 22/05 Q1014 NOSIG
VFR 23°C / 5°C 90º variable 040º to 140º 9kt 9700m - Clouds and Visibility OK 1015 No Significant change LERI 201300Z 09009KT 040V140 CAVOK 23/05 Q1015 NOSIG
VFR 22°C / 5°C 70º variable 360º to 120º 7kt 9700m - Clouds and Visibility OK 1015 No Significant change LERI 201230Z 07007KT 360V120 CAVOK 22/05 Q1015 NOSIG
VFR 22°C / 5°C 60º variable 030º to 120º 7kt 9700m - Clouds and Visibility OK 1015 No Significant change LERI 201200Z 06007KT 030V120 CAVOK 22/05 Q1015 NOSIG
VFR 21°C / 5°C 4kt 9700m - Clouds and Visibility OK 1016 No Significant change LERI 201130Z VRB04KT CAVOK 21/05 Q1016 NOSIG
VFR 20°C / 5°C 150º 2kt 9700m - Clouds and Visibility OK 1016 No Significant change LERI 201100Z 15002KT CAVOK 20/05 Q1016 NOSIG
VFR 19°C / 6°C 90º variable 020º to 150º 3kt 9700m - Clouds and Visibility OK 1016 No Significant change LERI 201030Z 09003KT 020V150 CAVOK 19/06 Q1016 NOSIG
VFR 18°C / 6°C 3kt 9700m - Clouds and Visibility OK 1016 No Significant change LERI 201000Z VRB03KT CAVOK 18/06 Q1016 NOSIG
VFR 17°C / 7°C 50º variable 340º to 120º 3kt 9700m - Clouds and Visibility OK 1016 No Significant change LERI 200930Z 05003KT 340V120 CAVOK 17/07 Q1016 NOSIG
VFR 16°C / 7°C 2kt 9700m - Clouds and Visibility OK 1016 No Significant change LERI 200900Z VRB02KT CAVOK 16/07 Q1016 NOSIG
VFR 15°C / 6°C 40º variable 360º to 100º 4kt 9700m - Clouds and Visibility OK 1016 No Significant change LERI 200830Z 04004KT 360V100 CAVOK 15/06 Q1016 NOSIG

VFR

13°C / 5°C

[Daha fazla]
Rüzgar 1kt
Görünürlük 9700m
Hava -
Bulutlar Few Clouds 2400ft
Broken Clouds 3200ft
Basınç 1018
Değiştir No Significant change
Ham LERI 210730Z VRB01KT 9999 FEW024 BKN032 13/05 Q1018 NOSIG

VFR

13°C / 6°C

[Daha fazla]
Rüzgar 2kt
Görünürlük 9700m
Hava -
Bulutlar Few Clouds 2400ft
Broken Clouds 3200ft
Basınç 1018
Değiştir No Significant change
Ham LERI 210700Z VRB02KT 9999 FEW024 BKN032 13/06 Q1018 NOSIG

VFR

11°C / 6°C

[Daha fazla]
Rüzgar 1kt
Görünürlük 9700m
Hava -
Bulutlar Scattered Clouds 2400ft
Basınç 1017
Değiştir No Significant change
Ham LERI 210630Z VRB01KT 9999 SCT024 11/06 Q1017 NOSIG

VFR

10°C / 5°C

[Daha fazla]
Rüzgar variable 0kt
Görünürlük 9700m
Hava -
Bulutlar Clouds and Visibility OK
Basınç 1017
Değiştir No Significant change
Ham LERI 210600Z 00000KT CAVOK 10/05 Q1017 NOSIG

VFR

17°C / 4°C

[Daha fazla]
Rüzgar 60º 9kt
Görünürlük 9700m
Hava -
Bulutlar Clouds and Visibility OK
Basınç 1014
Değiştir No Significant change
Ham LERI 201800Z 06009KT CAVOK 17/04 Q1014 NOSIG

VFR

18°C / 2°C

[Daha fazla]
Rüzgar 60º 10kt
Görünürlük 9700m
Hava -
Bulutlar Clouds and Visibility OK
Basınç 1014
Değiştir No Significant change
Ham LERI 201730Z 06010KT CAVOK 18/02 Q1014 NOSIG

VFR

19°C / 4°C

[Daha fazla]
Rüzgar 60º variable 030º to 090º 10kt
Görünürlük 9700m
Hava -
Bulutlar Clouds and Visibility OK
Basınç 1014
Değiştir No Significant change
Ham LERI 201700Z 06010KT 030V090 CAVOK 19/04 Q1014 NOSIG

VFR

20°C / 5°C

[Daha fazla]
Rüzgar 50º variable 020º to 090º 11kt
Görünürlük 9700m
Hava -
Bulutlar Clouds and Visibility OK
Basınç 1014
Değiştir No Significant change
Ham LERI 201630Z 05011KT 020V090 CAVOK 20/05 Q1014 NOSIG

VFR

20°C / 6°C

[Daha fazla]
Rüzgar 60º variable 030º to 100º 11kt
Görünürlük 9700m
Hava -
Bulutlar Clouds and Visibility OK
Basınç 1014
Değiştir No Significant change
Ham LERI 201600Z 06011KT 030V100 CAVOK 20/06 Q1014 NOSIG

VFR

21°C / 6°C

[Daha fazla]
Rüzgar 60º variable 030º to 150º 12kt Gust 23kt
Görünürlük 9700m
Hava -
Bulutlar Clouds and Visibility OK
Basınç 1014
Değiştir No Significant change
Ham LERI 201530Z 06012G23KT 030V150 CAVOK 21/06 Q1014 NOSIG

VFR

21°C / 6°C

[Daha fazla]
Rüzgar 70º variable 030º to 110º 10kt
Görünürlük 9700m
Hava -
Bulutlar Clouds and Visibility OK
Basınç 1014
Değiştir No Significant change
Ham LERI 201500Z 07010KT 030V110 CAVOK 21/06 Q1014 NOSIG

VFR

22°C / 6°C

[Daha fazla]
Rüzgar 130º variable 100º to 170º 10kt
Görünürlük 9700m
Hava -
Bulutlar Clouds and Visibility OK
Basınç 1014
Değiştir No Significant change
Ham LERI 201430Z 13010KT 100V170 CAVOK 22/06 Q1014 NOSIG

VFR

22°C / 7°C

[Daha fazla]
Rüzgar 100º variable 060º to 140º 11kt
Görünürlük 9700m
Hava -
Bulutlar Clouds and Visibility OK
Basınç 1014
Değiştir No Significant change
Ham LERI 201400Z 10011KT 060V140 CAVOK 22/07 Q1014 NOSIG

VFR

22°C / 5°C

[Daha fazla]
Rüzgar 80º variable 050º to 110º 10kt
Görünürlük 9700m
Hava -
Bulutlar Clouds and Visibility OK
Basınç 1014
Değiştir No Significant change
Ham LERI 201330Z 08010KT 050V110 CAVOK 22/05 Q1014 NOSIG

VFR

23°C / 5°C

[Daha fazla]
Rüzgar 90º variable 040º to 140º 9kt
Görünürlük 9700m
Hava -
Bulutlar Clouds and Visibility OK
Basınç 1015
Değiştir No Significant change
Ham LERI 201300Z 09009KT 040V140 CAVOK 23/05 Q1015 NOSIG

VFR

22°C / 5°C

[Daha fazla]
Rüzgar 70º variable 360º to 120º 7kt
Görünürlük 9700m
Hava -
Bulutlar Clouds and Visibility OK
Basınç 1015
Değiştir No Significant change
Ham LERI 201230Z 07007KT 360V120 CAVOK 22/05 Q1015 NOSIG

VFR

22°C / 5°C

[Daha fazla]
Rüzgar 60º variable 030º to 120º 7kt
Görünürlük 9700m
Hava -
Bulutlar Clouds and Visibility OK
Basınç 1015
Değiştir No Significant change
Ham LERI 201200Z 06007KT 030V120 CAVOK 22/05 Q1015 NOSIG

VFR

21°C / 5°C

[Daha fazla]
Rüzgar 4kt
Görünürlük 9700m
Hava -
Bulutlar Clouds and Visibility OK
Basınç 1016
Değiştir No Significant change
Ham LERI 201130Z VRB04KT CAVOK 21/05 Q1016 NOSIG

VFR

20°C / 5°C

[Daha fazla]
Rüzgar 150º 2kt
Görünürlük 9700m
Hava -
Bulutlar Clouds and Visibility OK
Basınç 1016
Değiştir No Significant change
Ham LERI 201100Z 15002KT CAVOK 20/05 Q1016 NOSIG

VFR

19°C / 6°C

[Daha fazla]
Rüzgar 90º variable 020º to 150º 3kt
Görünürlük 9700m
Hava -
Bulutlar Clouds and Visibility OK
Basınç 1016
Değiştir No Significant change
Ham LERI 201030Z 09003KT 020V150 CAVOK 19/06 Q1016 NOSIG

VFR

18°C / 6°C

[Daha fazla]
Rüzgar 3kt
Görünürlük 9700m
Hava -
Bulutlar Clouds and Visibility OK
Basınç 1016
Değiştir No Significant change
Ham LERI 201000Z VRB03KT CAVOK 18/06 Q1016 NOSIG

VFR

17°C / 7°C

[Daha fazla]
Rüzgar 50º variable 340º to 120º 3kt
Görünürlük 9700m
Hava -
Bulutlar Clouds and Visibility OK
Basınç 1016
Değiştir No Significant change
Ham LERI 200930Z 05003KT 340V120 CAVOK 17/07 Q1016 NOSIG

VFR

16°C / 7°C

[Daha fazla]
Rüzgar 2kt
Görünürlük 9700m
Hava -
Bulutlar Clouds and Visibility OK
Basınç 1016
Değiştir No Significant change
Ham LERI 200900Z VRB02KT CAVOK 16/07 Q1016 NOSIG

VFR

15°C / 6°C

[Daha fazla]
Rüzgar 40º variable 360º to 100º 4kt
Görünürlük 9700m
Hava -
Bulutlar Clouds and Visibility OK
Basınç 1016
Değiştir No Significant change
Ham LERI 200830Z 04004KT 360V100 CAVOK 15/06 Q1016 NOSIG

Alcantarilla (LERI) için TAF

From till


Maximum Temperature 23ºC on . Minimum Temperature 9ºC on .
From till Wind 2kt. Visibility 9700m. Nil Significant Cloud.
Becoming from till
Becoming from till

Ham: TAF LERI 210500Z 2106/2206 VRB02KT CAVOK TX23/2115Z TN09/2106Z BECMG 2111/2113 13010KT BECMG 2119/2121 VRB02KT

Alcantarilla için radar ve yağış nowcast

Çise
Hafif
Orta
Ağır
Çok ağır
Dolu

Konum işaretleyicisi Alcantarilla üzerine yerleştirilir. Bu animasyon, seçilen zaman aralığı için yağış radarının yanı sıra 2h tahminini gösterir. Turuncu çarpılar yıldırımı göstermektedir. Veriler nowcast.de tarafından sağlanmıştır (ABD, Avrupa ve Avustralya'da erişimi mevcuttur). Çiseleyen yağmur veya hafif kar yağışı radarda görünmeyebilir. Yağış yoğunluğu turkuazdan kırmızıya kadar değişen renklerle kodlanmıştır.

Alcantarilla için şu anki uydu ve yağmur görüntüleri, İspanya

Konum işaretleyici Alcantarilla üzerine yerleştirilir. [Daha fazla]

Gerçek zamanlı uydu görüntüsü gündüz süresince görülür ışığı gece süresince kızılötesi ışınım ile birleştirir. Gece kızılötesi ışınım sıcaklık farklarını algılayabildiğinden dolayı görüntü karanlık değildir. Ancak düşük bulutları ve sisi yer sıcaklığından ayırmak zordur ve bu nedenle gece boyunca neredeyse görünmez olabilirler. Avrupa için Meteosat uydu görüntüleri gerçek zamanlı olarak her 5 dakikada bir güncellenir. GOES-16/GOES-17 (Kuzey ve Güney Amerika) ve Himawari (Asya) görüntüleri her 10 dakikada bir güncellenir.

Yağış radar ve uydulardan tahmin edilir. Uydulardan elde edilen yağış tahminleri geceleri gündüze göre daha az doğrudur.

© 2024 meteoblue, NOAA Satellites GOES-16 and EUMETSAT. nowcast tarafından sağlanan şimşek verileri.

En başa git
×
Merhaba,
bir reklam engelleyici kullanıyormuşsunuz gibi görünüyor.

Reklam, ücretsiz web sitemizi benzersiz ayrıntı ve doğrulukla sürdürmek için çok önemlidir.

Lütfen reklam engelleyicinizde www.meteoblue.com beyaz listesini beyaz listeye alın veya ürünlerimizden birini satın almayı düşünün:

Zaten bir aboneliğiniz var mı?
O halde lütfen giriş yapın.